Flight Track Log - Related Links

Times and Time Zones

All times are in EDT time to prevent confusion due to time zone crossing. See the CHQ3021 flight status page for this flight to view local times or setup timezone preferences in your user account.

Time Position Orientation Groundspeed Altitude Reporting Facility
EDT Latitude Longitude Course Direction KTS MPH feet Rate Location/Type
Sun 02:42:56 PM 35.1578 -80.9522 251° West 175 201 3,300  Level Atlanta Center
Sun 02:43:50 PM 35.1083 -80.9692 196° South 247 284 4,900 1,820 Climbing Atlanta Center
Sun 02:44:00 PM 35.2504 -81.1171 321° Northwest  Level FlightAware Approximate
Sun 02:44:58 PM 35.0939 -81.0636 259° West 265 305 7,000  Level Atlanta Center
Sun 02:45:00 PM 35.2667 -81.2120 270° West  Level FlightAware Approximate
Sun 02:46:00 PM 35.1898 -81.2496 199° South  Level FlightAware Approximate
Sun 02:46:16 PM 35.1108 -81.1647 282° West 268 308 7,800  Level Atlanta Center
Sun 02:47:00 PM 35.1079 -81.2772 192° South  Level FlightAware Approximate
Sun 02:47:16 PM 35.1150 -81.2483 274° West 262 302 8,800  Level Atlanta Center
Sun 02:48:00 PM 35.0635 -81.3527 251° West  Level FlightAware Approximate
Sun 02:48:16 PM 35.0750 -81.3308 239° Southwest 255 293 10,400  Level Atlanta Center
Sun 02:49:16 PM 35.0439 -81.4333 250° West 305 351 11,800 1,500 Climbing Atlanta Center
Sun 02:50:16 PM 35.0086 -81.5486 250° West 332 382 13,400 1,600 Climbing Atlanta Center
Sun 02:51:16 PM 34.9775 -81.6558 251° West 337 388 15,000 1,450 Climbing Atlanta Center
Sun 02:52:16 PM 34.9439 -81.7658 250° West 337 388 16,300 1,200 Climbing Atlanta Center
Sun 02:53:16 PM 34.8978 -81.8708 242° Southwest 342 394 17,400 1,100 Climbing Atlanta Center
Sun 02:54:16 PM 34.8472 -81.9558 234° Southwest 347 399 18,500 1,100 Climbing Atlanta Center
Sun 02:55:16 PM 34.7906 -82.0558 235° Southwest 357 411 19,600 1,150 Climbing Atlanta Center
Sun 02:56:16 PM 34.7317 -82.1608 236° Southwest 368 423 20,800 1,150 Climbing Atlanta Center
Sun 02:57:16 PM 34.6747 -82.2606 235° Southwest 368 423 21,900 1,150 Climbing Atlanta Center
Sun 02:58:16 PM 34.6094 -82.3756 235° Southwest 374 430 23,100 1,167 Climbing Atlanta Center
Sun 03:00:16 PM 34.4911 -82.5819 235° Southwest 374 430 25,400 1,167 Climbing Atlanta Center
Sun 03:01:16 PM 34.4378 -82.6711 234° Southwest 379 436 26,600 867 Climbing Atlanta Center
Sun 03:03:16 PM 34.3250 -82.8692 235° Southwest 367 422 28,000 467 Climbing Atlanta Center
Sun 03:04:16 PM 34.2633 -82.9756 235° Southwest 372 428 28,000  Level Atlanta Center
Sun 03:06:16 PM 34.1317 -83.2006 235° Southwest 395 455 28,000  Level Atlanta Center
Sun 03:07:16 PM 34.0697 -83.3042 234° Southwest 395 455 28,000  Level Atlanta Center
Sun 03:08:16 PM 34.0097 -83.4097 236° Southwest 395 455 28,000  Level Atlanta Center
Sun 03:09:16 PM 33.9433 -83.5106 232° Southwest 395 455 28,000  Level Atlanta Center
Sun 03:10:16 PM 33.8686 -83.6008 225° Southwest 385 443 28,000  Level Atlanta Center
Sun 03:11:16 PM 33.7958 -83.6939 227° Southwest 385 443 28,000  Level Atlanta Center
Sun 03:12:16 PM 33.7231 -83.7892 227° Southwest 385 443 28,000  Level Atlanta Center
Sun 03:13:16 PM 33.6583 -83.8717 227° Southwest 390 449 28,000  Level Atlanta Center
Sun 03:14:16 PM 33.5958 -83.9789 235° Southwest 396 456 28,000  Level Atlanta Center
Sun 03:15:16 PM 33.5333 -84.0861 235° Southwest 402 463 28,000 -50 Level Atlanta Center
Sun 03:16:16 PM 33.4706 -84.1956 236° Southwest 402 463 27,900 -750 Descending Atlanta Center
Sun 03:17:16 PM 33.4036 -84.3175 237° Southwest 402 463 26,500 -950 Descending Atlanta Center
Sun 03:18:16 PM 33.3408 -84.4267 235° Southwest 402 463 26,000 -250 Descending Atlanta Center
Sun 03:19:16 PM 33.2756 -84.5358 234° Southwest 402 463 26,000  Level Atlanta Center
Sun 03:20:16 PM 33.2125 -84.6447 235° Southwest 402 463 26,000  Level Atlanta Center
Sun 03:21:16 PM 33.1492 -84.7558 236° Southwest 402 463 26,000  Level Atlanta Center
Sun 03:22:16 PM 33.0881 -84.8644 236° Southwest 408 470 26,000 -550 Level Atlanta Center
Sun 03:23:16 PM 33.0267 -84.9703 235° Southwest 400 460 24,900 -1,150 Descending Atlanta Center
Sun 03:24:16 PM 32.9611 -85.0811 235° Southwest 405 466 23,700 -1,250 Descending Atlanta Center
Sun 03:25:16 PM 32.9039 -85.1744 234° Southwest 405 466 22,400 -900 Descending Atlanta Center
Sun 03:26:16 PM 32.8425 -85.2800 235° Southwest 405 466 21,900 -1,150 Descending Atlanta Center
Sun 03:27:16 PM 32.7808 -85.3828 235° Southwest 405 466 20,100 -2,100 Descending Atlanta Center
Sun 03:28:16 PM 32.7192 -85.4856 235° Southwest 400 460 17,700 -2,300 Descending Atlanta Center
Sun 03:29:16 PM 32.6617 -85.5883 236° Southwest 395 455 15,500 -2,300 Descending Atlanta Center
Sun 03:30:16 PM 32.6039 -85.6811 234° Southwest 382 440 13,100 -2,200 Descending Atlanta Center
Sun 03:31:16 PM 32.5483 -85.7761 235° Southwest 364 419 11,100 -1,600 Descending Atlanta Center
Sun 03:32:16 PM 32.5014 -85.8539 234° Southwest 336 387 9,900 -1,950 Descending Atlanta Center
Sun 03:33:16 PM 32.4606 -85.9244 236° Southwest 292 336 7,200 -2,600 Descending Atlanta Center
Sun 03:34:16 PM 32.4158 -85.9900 231° Southwest 270 311 4,700 -1,600 Descending Atlanta Center
Sun 03:35:16 PM 32.3628 -86.0406 219° Southwest 259 298 4,000 -750 Descending Atlanta Center
Sun 03:36:16 PM 32.3078 -86.0933 219° Southwest 254 292 3,200 -800 Descending Atlanta Center

Login

Don't have an account? Register now (free) for customized features, flight alerts, and more!